Weather at Tracy Island Airstrip

Public forecast

Using degrees Celsius for public forecast. Weather courtesy of forecast.io.

Closest aviation weather report (METAR) to Tracy Island Airstrip

Closest report is RNAS Yeovilton, 13.5 nm (25.0 km) NE. Retrieved 2021/09/26 22:50 UTC (60 minutes ago):

EGDY 262250Z AUTO 16014KT 9999 FEW017/// SCT038/// BKN160/// 18/15 Q1008

Closest aviation forecast (TAF) to Tracy Island Airstrip

Forecast is more than 12 hours old.

Closest forecast is RNAS Yeovilton, 13.5 nm (25.0 km) NE. Retrieved 2020/10/05 06:30 UTC (12 months ago):

TAF TAF EGDY 051025Z 0506/0518 CNL